sensor_id;sensor_type;location;lat;lon;timestamp;noise_LAeq;noise_LA_min;noise_LA_max;noise_LA01;noise_LA95
71020;Laerm;58902;51.436;5.980;2022-11-15T00:00:05;34.04;31.54;36.29;;
71020;Laerm;58902;51.436;5.980;2022-11-15T00:00:16;40.26;30.43;53.62;;
71020;Laerm;58902;51.436;5.980;2022-11-15T00:00:27;30.83;29.65;32.03;;
71020;Laerm;58902;51.436;5.980;2022-11-15T00:00:38;30.72;29.54;32.28;;
71020;Laerm;58902;51.436;5.980;2022-11-15T00:00:48;30.84;29.63;32.30;;
71020;Laerm;58902;51.436;5.980;2022-11-15T00:00:59;30.76;29.55;32.17;;
71020;Laerm;58902;51.436;5.980;2022-11-15T00:01:11;32.07;30.41;34.05;;
71020;Laerm;58902;51.436;5.980;2022-11-15T00:01:24;34.31;30.60;42.24;;
71020;Laerm;58902;51.436;5.980;2022-11-15T00:01:34;35.23;34.01;37.12;;
71020;Laerm;58902;51.436;5.980;2022-11-15T00:01:47;35.20;31.30;40.65;;
71020;Laerm;58902;51.436;5.980;2022-11-15T00:01:57;31.17;29.97;32.74;;
71020;Laerm;58902;51.436;5.980;2022-11-15T00:02:07;31.05;29.91;35.30;;
71020;Laerm;58902;51.436;5.980;2022-11-15T00:02:18;31.79;29.34;38.02;;
71020;Laerm;58902;51.436;5.980;2022-11-15T00:02:28;32.19;30.37;37.62;;
71020;Laerm;58902;51.436;5.980;2022-11-15T00:02:38;32.49;30.62;33.49;;
71020;Laerm;58902;51.436;5.980;2022-11-15T00:02:49;33.16;31.33;35.69;;
71020;Laerm;58902;51.436;5.980;2022-11-15T00:02:59;32.50;31.42;33.74;;
71020;Laerm;58902;51.436;5.980;2022-11-15T00:03:09;32.25;31.21;33.28;;
71020;Laerm;58902;51.436;5.980;2022-11-15T00:03:21;32.59;30.82;35.48;;
71020;Laerm;58902;51.436;5.980;2022-11-15T00:03:32;32.01;30.74;36.65;;
71020;Laerm;58902;51.436;5.980;2022-11-15T00:03:42;32.08;30.15;39.61;;
71020;Laerm;58902;51.436;5.980;2022-11-15T00:03:52;31.73;29.25;35.44;;
71020;Laerm;58902;51.436;5.980;2022-11-15T00:04:03;30.39;29.34;31.99;;
71020;Laerm;58902;51.436;5.980;2022-11-15T00:04:13;30.44;28.97;32.26;;
71020;Laerm;58902;51.436;5.980;2022-11-15T00:04:24;30.62;29.41;33.70;;
71020;Laerm;58902;51.436;5.980;2022-11-15T00:04:34;30.61;29.08;32.35;;
71020;Laerm;58902;51.436;5.980;2022-11-15T00:04:44;31.07;29.66;32.28;;
71020;Laerm;58902;51.436;5.980;2022-11-15T00:04:55;31.22;30.04;32.51;;
71020;Laerm;58902;51.436;5.980;2022-11-15T00:05:05;31.33;30.03;32.45;;
71020;Laerm;58902;51.436;5.980;2022-11-15T00:05:15;31.25;29.97;32.31;;
71020;Laerm;58902;51.436;5.980;2022-11-15T00:05:26;33.48;29.94;49.61;;
71020;Laerm;58902;51.436;5.980;2022-11-15T00:05:36;31.02;29.75;32.63;;
71020;Laerm;58902;51.436;5.980;2022-11-15T00:05:47;31.22;30.16;32.65;;
71020;Laerm;58902;51.436;5.980;2022-11-15T00:06:01;30.94;29.36;32.70;;
71020;Laerm;58902;51.436;5.980;2022-11-15T00:06:11;33.21;29.33;38.65;;
71020;Laerm;58902;51.436;5.980;2022-11-15T00:06:22;35.04;32.19;38.10;;
71020;Laerm;58902;51.436;5.980;2022-11-15T00:06:32;34.40;31.68;38.48;;
71020;Laerm;58902;51.436;5.980;2022-11-15T00:06:42;33.12;31.68;34.68;;
71020;Laerm;58902;51.436;5.980;2022-11-15T00:06:53;31.50;29.59;33.23;;
71020;Laerm;58902;51.436;5.980;2022-11-15T00:07:03;30.12;28.90;31.72;;
71020;Laerm;58902;51.436;5.980;2022-11-15T00:07:13;29.98;28.77;34.38;;
71020;Laerm;58902;51.436;5.980;2022-11-15T00:07:24;29.87;28.69;31.31;;
71020;Laerm;58902;51.436;5.980;2022-11-15T00:07:34;30.55;28.72;31.93;;
71020;Laerm;58902;51.436;5.980;2022-11-15T00:07:44;31.08;30.15;32.12;;
71020;Laerm;58902;51.436;5.980;2022-11-15T00:07:56;32.07;30.18;36.59;;
71020;Laerm;58902;51.436;5.980;2022-11-15T00:08:06;34.42;31.50;38.35;;
71020;Laerm;58902;51.436;5.980;2022-11-15T00:08:17;35.03;31.11;37.91;;
71020;Laerm;58902;51.436;5.980;2022-11-15T00:08:30;35.79;32.52;38.97;;
71020;Laerm;58902;51.436;5.980;2022-11-15T00:08:41;32.92;29.19;38.59;;
71020;Laerm;58902;51.436;5.980;2022-11-15T00:08:51;30.98;29.71;33.28;;
71020;Laerm;58902;51.436;5.980;2022-11-15T00:09:02;33.09;29.58;36.00;;
71020;Laerm;58902;51.436;5.980;2022-11-15T00:09:12;30.65;28.20;34.40;;
71020;Laerm;58902;51.436;5.980;2022-11-15T00:09:23;29.37;27.92;31.06;;
71020;Laerm;58902;51.436;5.980;2022-11-15T00:09:33;29.38;28.42;30.34;;
71020;Laerm;58902;51.436;5.980;2022-11-15T00:09:43;29.45;28.38;32.08;;
71020;Laerm;58902;51.436;5.980;2022-11-15T00:09:54;29.36;28.10;30.61;;
71020;Laerm;58902;51.436;5.980;2022-11-15T00:10:04;29.87;28.48;31.42;;
71020;Laerm;58902;51.436;5.980;2022-11-15T00:10:15;30.22;28.94;31.89;;
71020;Laerm;58902;51.436;5.980;2022-11-15T00:10:25;41.67;29.29;48.88;;
71020;Laerm;58902;51.436;5.980;2022-11-15T00:10:36;42.42;34.27;47.92;;
71020;Laerm;58902;51.436;5.980;2022-11-15T00:10:56;37.54;34.19;41.17;;
71020;Laerm;58902;51.436;5.980;2022-11-15T00:11:08;38.11;34.51;42.16;;
71020;Laerm;58902;51.436;5.980;2022-11-15T00:11:19;67.37;37.09;77.34;;
71020;Laerm;58902;51.436;5.980;2022-11-15T00:11:30;71.78;67.94;75.03;;
71020;Laerm;58902;51.436;5.980;2022-11-15T00:11:40;71.36;59.03;76.88;;
71020;Laerm;58902;51.436;5.980;2022-11-15T00:11:51;49.62;42.27;60.93;;
71020;Laerm;58902;51.436;5.980;2022-11-15T00:12:01;41.83;36.10;48.36;;
71020;Laerm;58902;51.436;5.980;2022-11-15T00:12:11;36.67;33.82;42.58;;
71020;Laerm;58902;51.436;5.980;2022-11-15T00:12:22;35.45;33.85;38.78;;
71020;Laerm;58902;51.436;5.980;2022-11-15T00:12:32;34.45;32.04;36.77;;
71020;Laerm;58902;51.436;5.980;2022-11-15T00:12:42;33.77;31.96;35.42;;
71020;Laerm;58902;51.436;5.980;2022-11-15T00:12:53;32.68;30.96;34.47;;
71020;Laerm;58902;51.436;5.980;2022-11-15T00:13:07;33.55;31.08;36.45;;
71020;Laerm;58902;51.436;5.980;2022-11-15T00:13:17;33.54;31.18;37.67;;
71020;Laerm;58902;51.436;5.980;2022-11-15T00:13:28;32.88;30.68;35.99;;
71020;Laerm;58902;51.436;5.980;2022-11-15T00:13:38;33.09;30.40;39.57;;
71020;Laerm;58902;51.436;5.980;2022-11-15T00:13:49;34.13;31.17;39.51;;
71020;Laerm;58902;51.436;5.980;2022-11-15T00:13:59;33.65;30.79;38.24;;
71020;Laerm;58902;51.436;5.980;2022-11-15T00:14:12;33.62;31.85;35.58;;
71020;Laerm;58902;51.436;5.980;2022-11-15T00:14:22;35.14;34.05;36.14;;
71020;Laerm;58902;51.436;5.980;2022-11-15T00:14:33;34.54;30.54;36.57;;
71020;Laerm;58902;51.436;5.980;2022-11-15T00:14:43;33.49;32.06;35.06;;
71020;Laerm;58902;51.436;5.980;2022-11-15T00:14:53;33.58;31.39;44.18;;
71020;Laerm;58902;51.436;5.980;2022-11-15T00:15:04;33.32;29.44;35.60;;
71020;Laerm;58902;51.436;5.980;2022-11-15T00:15:14;34.25;32.98;35.23;;
71020;Laerm;58902;51.436;5.980;2022-11-15T00:15:25;34.01;32.78;34.83;;
71020;Laerm;58902;51.436;5.980;2022-11-15T00:15:35;34.46;30.26;40.63;;
71020;Laerm;58902;51.436;5.980;2022-11-15T00:15:46;30.98;29.93;32.25;;
71020;Laerm;58902;51.436;5.980;2022-11-15T00:15:57;30.66;29.35;31.83;;
71020;Laerm;58902;51.436;5.980;2022-11-15T00:16:08;31.23;29.72;33.24;;
71020;Laerm;58902;51.436;5.980;2022-11-15T00:16:19;33.38;30.68;38.28;;
71020;Laerm;58902;51.436;5.980;2022-11-15T00:16:29;32.73;31.28;34.55;;
71020;Laerm;58902;51.436;5.980;2022-11-15T00:16:39;32.73;31.03;34.60;;
71020;Laerm;58902;51.436;5.980;2022-11-15T00:16:50;31.56;29.71;34.20;;
71020;Laerm;58902;51.436;5.980;2022-11-15T00:17:00;31.59;29.95;33.75;;
71020;Laerm;58902;51.436;5.980;2022-11-15T00:17:10;31.41;29.86;34.30;;
71020;Laerm;58902;51.436;5.980;2022-11-15T00:17:21;31.20;29.65;33.78;;
71020;Laerm;58902;51.436;5.980;2022-11-15T00:17:31;31.32;29.92;35.47;;
71020;Laerm;58902;51.436;5.980;2022-11-15T00:17:41;31.86;30.49;34.01;;
71020;Laerm;58902;51.436;5.980;2022-11-15T00:17:52;32.36;30.23;35.43;;
71020;Laerm;58902;51.436;5.980;2022-11-15T00:18:03;32.11;30.66;34.58;;
71020;Laerm;58902;51.436;5.980;2022-11-15T00:18:14;31.69;30.38;33.58;;
71020;Laerm;58902;51.436;5.980;2022-11-15T00:18:24;33.42;31.01;36.31;;
71020;Laerm;58902;51.436;5.980;2022-11-15T00:18:35;33.48;31.96;34.82;;
71020;Laerm;58902;51.436;5.980;2022-11-15T00:18:45;33.91;32.42;35.44;;
71020;Laerm;58902;51.436;5.980;2022-11-15T00:18:55;33.60;31.76;35.07;;
71020;Laerm;58902;51.436;5.980;2022-11-15T00:19:07;33.27;31.85;34.98;;
71020;Laerm;58902;51.436;5.980;2022-11-15T00:19:17;33.29;31.46;34.98;;
71020;Laerm;58902;51.436;5.980;2022-11-15T00:19:28;33.41;31.71;35.17;;
71020;Laerm;58902;51.436;5.980;2022-11-15T00:19:38;33.15;31.65;35.10;;
71020;Laerm;58902;51.436;5.980;2022-11-15T00:19:49;33.45;31.83;35.09;;
71020;Laerm;58902;51.436;5.980;2022-11-15T00:19:59;35.22;32.47;37.96;;
71020;Laerm;58902;51.436;5.980;2022-11-15T00:20:10;37.21;33.22;40.65;;
71020;Laerm;58902;51.436;5.980;2022-11-15T00:20:21;34.20;31.75;38.03;;
71020;Laerm;58902;51.436;5.980;2022-11-15T00:20:34;34.19;32.47;36.13;;
71020;Laerm;58902;51.436;5.980;2022-11-15T00:20:44;34.02;32.33;35.26;;
71020;Laerm;58902;51.436;5.980;2022-11-15T00:20:55;33.75;31.89;35.94;;
71020;Laerm;58902;51.436;5.980;2022-11-15T00:21:15;33.54;31.95;34.95;;
71020;Laerm;58902;51.436;5.980;2022-11-15T00:21:25;34.02;32.06;35.89;;
71020;Laerm;58902;51.436;5.980;2022-11-15T00:21:36;34.31;32.84;35.84;;
71020;Laerm;58902;51.436;5.980;2022-11-15T00:21:46;33.20;31.37;35.02;;
71020;Laerm;58902;51.436;5.980;2022-11-15T00:21:56;32.95;31.52;34.60;;
71020;Laerm;58902;51.436;5.980;2022-11-15T00:22:07;33.82;31.81;35.76;;
71020;Laerm;58902;51.436;5.980;2022-11-15T00:22:17;33.33;31.17;35.42;;
71020;Laerm;58902;51.436;5.980;2022-11-15T00:22:31;32.34;30.51;35.95;;
71020;Laerm;58902;51.436;5.980;2022-11-15T00:22:42;31.08;29.61;32.83;;
71020;Laerm;58902;51.436;5.980;2022-11-15T00:22:52;31.08;29.45;33.13;;
71020;Laerm;58902;51.436;5.980;2022-11-15T00:23:03;30.53;29.05;31.75;;
71020;Laerm;58902;51.436;5.980;2022-11-15T00:23:14;30.09;29.07;31.36;;
71020;Laerm;58902;51.436;5.980;2022-11-15T00:23:24;29.83;28.54;31.38;;
71020;Laerm;58902;51.436;5.980;2022-11-15T00:23:34;29.48;28.33;30.90;;
71020;Laerm;58902;51.436;5.980;2022-11-15T00:23:45;29.45;28.45;31.56;;
71020;Laerm;58902;51.436;5.980;2022-11-15T00:23:55;29.44;28.36;30.95;;
71020;Laerm;58902;51.436;5.980;2022-11-15T00:24:05;29.34;28.14;30.38;;
71020;Laerm;58902;51.436;5.980;2022-11-15T00:24:16;29.38;28.09;30.50;;
71020;Laerm;58902;51.436;5.980;2022-11-15T00:24:26;30.03;28.58;31.55;;
71020;Laerm;58902;51.436;5.980;2022-11-15T00:24:37;30.53;29.42;31.55;;
71020;Laerm;58902;51.436;5.980;2022-11-15T00:24:47;30.66;29.26;32.22;;
71020;Laerm;58902;51.436;5.980;2022-11-15T00:24:57;30.70;29.43;32.74;;
71020;Laerm;58902;51.436;5.980;2022-11-15T00:25:08;31.03;29.64;33.89;;
71020;Laerm;58902;51.436;5.980;2022-11-15T00:25:18;31.11;29.37;33.85;;
71020;Laerm;58902;51.436;5.980;2022-11-15T00:25:28;32.27;30.25;38.94;;
71020;Laerm;58902;51.436;5.980;2022-11-15T00:25:39;31.79;30.14;34.49;;
71020;Laerm;58902;51.436;5.980;2022-11-15T00:25:59;38.75;29.74;45.45;;
71020;Laerm;58902;51.436;5.980;2022-11-15T00:26:11;42.54;34.41;49.70;;
71020;Laerm;58902;51.436;5.980;2022-11-15T00:26:21;38.94;33.71;41.79;;
71020;Laerm;58902;51.436;5.980;2022-11-15T00:26:32;39.40;34.97;42.91;;
71020;Laerm;58902;51.436;5.980;2022-11-15T00:26:42;74.03;38.63;82.98;;
71020;Laerm;58902;51.436;5.980;2022-11-15T00:26:52;72.86;69.08;79.21;;
71020;Laerm;58902;51.436;5.980;2022-11-15T00:27:03;73.13;53.27;79.77;;
71020;Laerm;58902;51.436;5.980;2022-11-15T00:27:13;49.29;43.79;53.56;;
71020;Laerm;58902;51.436;5.980;2022-11-15T00:27:23;42.73;37.67;48.16;;
71020;Laerm;58902;51.436;5.980;2022-11-15T00:27:34;39.18;36.58;45.02;;
71020;Laerm;58902;51.436;5.980;2022-11-15T00:27:45;36.71;34.70;38.63;;
71020;Laerm;58902;51.436;5.980;2022-11-15T00:27:58;35.64;33.29;38.22;;
71020;Laerm;58902;51.436;5.980;2022-11-15T00:28:09;33.89;31.43;37.72;;
71020;Laerm;58902;51.436;5.980;2022-11-15T00:28:19;32.89;31.10;34.86;;
71020;Laerm;58902;51.436;5.980;2022-11-15T00:28:29;31.94;30.69;33.33;;
71020;Laerm;58902;51.436;5.980;2022-11-15T00:28:40;32.20;30.80;33.33;;
71020;Laerm;58902;51.436;5.980;2022-11-15T00:28:51;31.65;29.88;32.86;;
71020;Laerm;58902;51.436;5.980;2022-11-15T00:29:01;31.46;29.45;33.85;;
71020;Laerm;58902;51.436;5.980;2022-11-15T00:29:12;31.80;30.30;33.13;;
71020;Laerm;58902;51.436;5.980;2022-11-15T00:29:22;32.73;30.83;34.59;;
71020;Laerm;58902;51.436;5.980;2022-11-15T00:29:32;32.14;30.05;35.32;;
71020;Laerm;58902;51.436;5.980;2022-11-15T00:29:43;32.67;30.33;37.37;;
71020;Laerm;58902;51.436;5.980;2022-11-15T00:29:53;31.65;29.61;33.89;;
71020;Laerm;58902;51.436;5.980;2022-11-15T00:30:04;31.19;29.43;35.19;;
71020;Laerm;58902;51.436;5.980;2022-11-15T00:30:14;30.37;29.14;32.21;;
71020;Laerm;58902;51.436;5.980;2022-11-15T00:30:25;30.71;29.56;31.59;;
71020;Laerm;58902;51.436;5.980;2022-11-15T00:30:36;30.52;29.37;31.45;;
71020;Laerm;58902;51.436;5.980;2022-11-15T00:30:46;33.19;29.46;34.24;;
71020;Laerm;58902;51.436;5.980;2022-11-15T00:30:59;33.65;32.67;34.47;;
71020;Laerm;58902;51.436;5.980;2022-11-15T00:31:13;33.35;29.95;35.13;;
71020;Laerm;58902;51.436;5.980;2022-11-15T00:31:24;32.63;29.75;33.65;;
71020;Laerm;58902;51.436;5.980;2022-11-15T00:31:34;32.63;31.59;33.85;;
71020;Laerm;58902;51.436;5.980;2022-11-15T00:31:44;31.24;29.39;33.17;;
71020;Laerm;58902;51.436;5.980;2022-11-15T00:31:55;30.26;28.94;31.39;;
71020;Laerm;58902;51.436;5.980;2022-11-15T00:32:05;42.62;29.19;55.36;;
71020;Laerm;58902;51.436;5.980;2022-11-15T00:32:16;31.09;29.10;34.84;;
71020;Laerm;58902;51.436;5.980;2022-11-15T00:32:26;30.64;29.49;32.76;;
71020;Laerm;58902;51.436;5.980;2022-11-15T00:32:36;30.82;29.46;31.88;;
71020;Laerm;58902;51.436;5.980;2022-11-15T00:32:47;31.44;29.54;32.79;;
71020;Laerm;58902;51.436;5.980;2022-11-15T00:33:01;31.38;30.21;32.53;;
71020;Laerm;58902;51.436;5.980;2022-11-15T00:33:11;31.17;28.77;33.82;;
71020;Laerm;58902;51.436;5.980;2022-11-15T00:33:22;29.37;28.30;31.03;;
71020;Laerm;58902;51.436;5.980;2022-11-15T00:33:32;29.24;28.37;30.42;;
71020;Laerm;58902;51.436;5.980;2022-11-15T00:33:43;29.38;28.02;30.76;;
71020;Laerm;58902;51.436;5.980;2022-11-15T00:33:54;29.18;28.20;30.88;;
71020;Laerm;58902;51.436;5.980;2022-11-15T00:34:04;29.14;27.91;30.18;;
71020;Laerm;58902;51.436;5.980;2022-11-15T00:34:14;29.32;28.37;31.47;;
71020;Laerm;58902;51.436;5.980;2022-11-15T00:34:25;29.23;28.42;30.30;;
71020;Laerm;58902;51.436;5.980;2022-11-15T00:34:35;29.65;28.57;30.84;;
71020;Laerm;58902;51.436;5.980;2022-11-15T00:34:46;29.71;28.48;31.58;;
71020;Laerm;58902;51.436;5.980;2022-11-15T00:34:56;29.64;28.67;30.51;;
71020;Laerm;58902;51.436;5.980;2022-11-15T00:35:06;29.63;28.48;30.93;;
71020;Laerm;58902;51.436;5.980;2022-11-15T00:35:17;30.58;28.64;33.04;;
71020;Laerm;58902;51.436;5.980;2022-11-15T00:35:28;31.24;29.81;32.44;;
71020;Laerm;58902;51.436;5.980;2022-11-15T00:35:38;31.41;29.79;32.77;;
71020;Laerm;58902;51.436;5.980;2022-11-15T00:35:48;32.10;30.18;35.36;;
71020;Laerm;58902;51.436;5.980;2022-11-15T00:35:59;32.48;30.45;34.68;;
71020;Laerm;58902;51.436;5.980;2022-11-15T00:36:10;32.92;30.53;37.42;;
71020;Laerm;58902;51.436;5.980;2022-11-15T00:36:20;34.55;30.57;39.96;;
71020;Laerm;58902;51.436;5.980;2022-11-15T00:36:32;33.42;30.69;38.84;;
71020;Laerm;58902;51.436;5.980;2022-11-15T00:36:43;32.59;30.60;36.14;;
71020;Laerm;58902;51.436;5.980;2022-11-15T00:36:53;32.83;30.66;34.95;;
71020;Laerm;58902;51.436;5.980;2022-11-15T00:37:03;33.22;31.23;35.90;;
71020;Laerm;58902;51.436;5.980;2022-11-15T00:37:14;32.46;30.87;34.79;;
71020;Laerm;58902;51.436;5.980;2022-11-15T00:37:24;32.02;30.48;33.36;;
71020;Laerm;58902;51.436;5.980;2022-11-15T00:37:34;32.18;30.92;33.76;;
71020;Laerm;58902;51.436;5.980;2022-11-15T00:37:45;31.38;29.79;33.06;;
71020;Laerm;58902;51.436;5.980;2022-11-15T00:37:57;31.30;30.07;32.44;;
71020;Laerm;58902;51.436;5.980;2022-11-15T00:38:07;31.21;30.19;32.22;;
71020;Laerm;58902;51.436;5.980;2022-11-15T00:38:18;33.72;30.07;39.82;;
71020;Laerm;58902;51.436;5.980;2022-11-15T00:38:31;32.56;31.19;34.10;;
71020;Laerm;58902;51.436;5.980;2022-11-15T00:38:42;33.14;31.54;36.10;;
71020;Laerm;58902;51.436;5.980;2022-11-15T00:38:53;33.19;32.04;34.35;;
71020;Laerm;58902;51.436;5.980;2022-11-15T00:39:04;32.98;31.74;34.12;;
71020;Laerm;58902;51.436;5.980;2022-11-15T00:39:15;33.39;31.32;35.98;;
71020;Laerm;58902;51.436;5.980;2022-11-15T00:39:25;32.55;29.75;37.98;;
71020;Laerm;58902;51.436;5.980;2022-11-15T00:39:35;32.74;28.93;37.20;;
71020;Laerm;58902;51.436;5.980;2022-11-15T00:39:46;31.46;28.69;42.80;;
71020;Laerm;58902;51.436;5.980;2022-11-15T00:39:56;29.63;28.39;30.75;;
71020;Laerm;58902;51.436;5.980;2022-11-15T00:40:07;29.72;28.43;31.18;;
71020;Laerm;58902;51.436;5.980;2022-11-15T00:40:17;29.85;28.38;31.51;;
71020;Laerm;58902;51.436;5.980;2022-11-15T00:40:28;29.73;28.48;31.76;;
71020;Laerm;58902;51.436;5.980;2022-11-15T00:40:38;29.69;28.56;31.83;;
71020;Laerm;58902;51.436;5.980;2022-11-15T00:40:48;29.56;28.29;30.60;;
71020;Laerm;58902;51.436;5.980;2022-11-15T00:40:59;29.66;28.63;31.48;;
71020;Laerm;58902;51.436;5.980;2022-11-15T00:41:09;29.77;28.72;31.08;;
71020;Laerm;58902;51.436;5.980;2022-11-15T00:41:19;29.70;28.39;30.71;;
71020;Laerm;58902;51.436;5.980;2022-11-15T00:41:30;29.74;28.83;30.92;;
71020;Laerm;58902;51.436;5.980;2022-11-15T00:41:40;29.57;28.63;31.01;;
71020;Laerm;58902;51.436;5.980;2022-11-15T00:41:50;29.57;28.53;30.67;;
71020;Laerm;58902;51.436;5.980;2022-11-15T00:42:01;29.73;28.54;31.45;;
71020;Laerm;58902;51.436;5.980;2022-11-15T00:42:11;29.82;28.74;31.88;;
71020;Laerm;58902;51.436;5.980;2022-11-15T00:42:22;29.83;28.70;31.64;;
71020;Laerm;58902;51.436;5.980;2022-11-15T00:42:32;29.84;28.93;31.20;;
71020;Laerm;58902;51.436;5.980;2022-11-15T00:42:42;29.91;28.91;31.29;;
71020;Laerm;58902;51.436;5.980;2022-11-15T00:42:53;29.99;28.84;35.29;;
71020;Laerm;58902;51.436;5.980;2022-11-15T00:43:03;29.58;28.22;32.08;;
71020;Laerm;58902;51.436;5.980;2022-11-15T00:43:13;29.67;28.56;30.99;;
71020;Laerm;58902;51.436;5.980;2022-11-15T00:43:24;29.65;28.66;31.55;;
71020;Laerm;58902;51.436;5.980;2022-11-15T00:43:34;29.83;28.08;31.31;;
71020;Laerm;58902;51.436;5.980;2022-11-15T00:43:45;30.63;29.63;31.65;;
71020;Laerm;58902;51.436;5.980;2022-11-15T00:43:55;31.03;29.61;32.53;;
71020;Laerm;58902;51.436;5.980;2022-11-15T00:44:05;30.93;28.97;33.06;;
71020;Laerm;58902;51.436;5.980;2022-11-15T00:44:16;32.14;30.37;33.54;;
71020;Laerm;58902;51.436;5.980;2022-11-15T00:44:26;31.96;30.82;32.80;;
71020;Laerm;58902;51.436;5.980;2022-11-15T00:44:36;31.41;29.56;32.96;;
71020;Laerm;58902;51.436;5.980;2022-11-15T00:44:47;31.10;29.89;32.71;;
71020;Laerm;58902;51.436;5.980;2022-11-15T00:44:57;31.59;30.12;32.99;;
71020;Laerm;58902;51.436;5.980;2022-11-15T00:45:08;30.99;29.75;32.65;;
71020;Laerm;58902;51.436;5.980;2022-11-15T00:45:18;30.61;29.17;31.73;;
71020;Laerm;58902;51.436;5.980;2022-11-15T00:45:29;30.49;29.60;31.59;;
71020;Laerm;58902;51.436;5.980;2022-11-15T00:45:39;31.40;29.40;33.82;;
71020;Laerm;58902;51.436;5.980;2022-11-15T00:45:49;33.76;32.72;34.87;;
71020;Laerm;58902;51.436;5.980;2022-11-15T00:46:00;33.98;32.76;35.16;;
71020;Laerm;58902;51.436;5.980;2022-11-15T00:46:11;36.36;30.16;38.34;;
71020;Laerm;58902;51.436;5.980;2022-11-15T00:46:21;33.62;29.94;37.25;;
71020;Laerm;58902;51.436;5.980;2022-11-15T00:46:31;30.90;28.67;32.02;;
71020;Laerm;58902;51.436;5.980;2022-11-15T00:46:42;31.28;29.09;33.16;;
71020;Laerm;58902;51.436;5.980;2022-11-15T00:46:52;31.97;30.60;33.21;;
71020;Laerm;58902;51.436;5.980;2022-11-15T00:47:02;31.00;28.78;32.49;;
71020;Laerm;58902;51.436;5.980;2022-11-15T00:47:13;30.76;29.13;33.77;;
71020;Laerm;58902;51.436;5.980;2022-11-15T00:47:23;31.97;30.73;33.16;;
71020;Laerm;58902;51.436;5.980;2022-11-15T00:47:33;31.07;28.81;33.51;;
71020;Laerm;58902;51.436;5.980;2022-11-15T00:47:44;29.56;28.12;31.19;;
71020;Laerm;58902;51.436;5.980;2022-11-15T00:47:55;29.70;28.67;31.11;;
71020;Laerm;58902;51.436;5.980;2022-11-15T00:48:06;30.26;29.01;31.84;;
71020;Laerm;58902;51.436;5.980;2022-11-15T00:48:17;30.98;29.55;32.68;;
71020;Laerm;58902;51.436;5.980;2022-11-15T00:48:28;31.21;29.59;33.34;;
71020;Laerm;58902;51.436;5.980;2022-11-15T00:48:39;30.77;29.24;32.21;;
71020;Laerm;58902;51.436;5.980;2022-11-15T00:48:49;33.38;30.51;37.75;;
71020;Laerm;58902;51.436;5.980;2022-11-15T00:49:00;31.80;29.52;34.83;;
71020;Laerm;58902;51.436;5.980;2022-11-15T00:49:10;30.38;28.93;31.91;;
71020;Laerm;58902;51.436;5.980;2022-11-15T00:49:20;30.51;29.29;32.45;;
71020;Laerm;58902;51.436;5.980;2022-11-15T00:49:31;31.22;29.24;33.76;;
71020;Laerm;58902;51.436;5.980;2022-11-15T00:49:41;32.41;30.23;34.55;;
71020;Laerm;58902;51.436;5.980;2022-11-15T00:49:51;31.85;30.32;32.89;;
71020;Laerm;58902;51.436;5.980;2022-11-15T00:50:02;32.08;30.07;33.78;;
71020;Laerm;58902;51.436;5.980;2022-11-15T00:50:13;31.35;29.30;33.49;;
71020;Laerm;58902;51.436;5.980;2022-11-15T00:50:23;30.80;28.72;36.75;;
71020;Laerm;58902;51.436;5.980;2022-11-15T00:50:34;30.31;28.57;32.47;;
71020;Laerm;58902;51.436;5.980;2022-11-15T00:50:44;33.66;29.33;35.36;;
71020;Laerm;58902;51.436;5.980;2022-11-15T00:50:54;32.95;31.52;34.25;;
71020;Laerm;58902;51.436;5.980;2022-11-15T00:51:05;32.60;30.02;34.62;;
71020;Laerm;58902;51.436;5.980;2022-11-15T00:51:15;32.21;30.51;33.46;;
71020;Laerm;58902;51.436;5.980;2022-11-15T00:51:25;33.02;31.25;35.20;;
71020;Laerm;58902;51.436;5.980;2022-11-15T00:51:36;34.20;31.58;36.63;;
71020;Laerm;58902;51.436;5.980;2022-11-15T00:51:46;34.10;32.05;36.36;;
71020;Laerm;58902;51.436;5.980;2022-11-15T00:51:57;33.02;31.55;34.27;;
71020;Laerm;58902;51.436;5.980;2022-11-15T00:52:07;32.02;29.90;34.43;;
71020;Laerm;58902;51.436;5.980;2022-11-15T00:52:17;44.21;30.37;48.74;;
71020;Laerm;58902;51.436;5.980;2022-11-15T00:52:28;42.25;35.30;49.16;;
71020;Laerm;58902;51.436;5.980;2022-11-15T00:52:38;37.43;34.47;40.87;;
71020;Laerm;58902;51.436;5.980;2022-11-15T00:52:48;37.60;34.58;40.55;;
71020;Laerm;58902;51.436;5.980;2022-11-15T00:52:59;38.02;34.81;41.06;;
71020;Laerm;58902;51.436;5.980;2022-11-15T00:53:09;70.74;36.77;78.16;;
71020;Laerm;58902;51.436;5.980;2022-11-15T00:53:19;72.26;68.92;76.58;;
71020;Laerm;58902;51.436;5.980;2022-11-15T00:53:30;69.91;46.82;76.52;;
71020;Laerm;58902;51.436;5.980;2022-11-15T00:53:40;44.06;38.63;48.17;;
71020;Laerm;58902;51.436;5.980;2022-11-15T00:53:51;38.95;35.41;46.59;;
71020;Laerm;58902;51.436;5.980;2022-11-15T00:54:01;35.77;33.65;41.58;;
71020;Laerm;58902;51.436;5.980;2022-11-15T00:54:11;35.32;33.27;36.96;;
71020;Laerm;58902;51.436;5.980;2022-11-15T00:54:21;34.32;32.52;35.98;;
71020;Laerm;58902;51.436;5.980;2022-11-15T00:54:32;33.73;31.15;35.57;;
71020;Laerm;58902;51.436;5.980;2022-11-15T00:54:42;36.47;32.48;37.75;;
71020;Laerm;58902;51.436;5.980;2022-11-15T00:54:52;36.23;34.82;37.43;;
71020;Laerm;58902;51.436;5.980;2022-11-15T00:55:03;35.61;32.58;39.00;;
71020;Laerm;58902;51.436;5.980;2022-11-15T00:55:14;31.22;29.81;32.69;;
71020;Laerm;58902;51.436;5.980;2022-11-15T00:55:25;30.48;29.03;31.92;;
71020;Laerm;58902;51.436;5.980;2022-11-15T00:55:35;32.03;29.50;37.18;;
71020;Laerm;58902;51.436;5.980;2022-11-15T00:55:46;31.35;30.10;32.69;;
71020;Laerm;58902;51.436;5.980;2022-11-15T00:55:56;31.06;29.89;31.94;;
71020;Laerm;58902;51.436;5.980;2022-11-15T00:56:06;30.65;29.06;33.06;;
71020;Laerm;58902;51.436;5.980;2022-11-15T00:56:17;30.32;29.30;32.44;;
71020;Laerm;58902;51.436;5.980;2022-11-15T00:56:27;30.55;29.32;31.60;;
71020;Laerm;58902;51.436;5.980;2022-11-15T00:56:37;30.35;28.88;31.27;;
71020;Laerm;58902;51.436;5.980;2022-11-15T00:56:48;30.74;29.44;32.09;;
71020;Laerm;58902;51.436;5.980;2022-11-15T00:56:58;32.65;29.84;35.73;;
71020;Laerm;58902;51.436;5.980;2022-11-15T00:57:08;38.96;33.06;42.49;;
71020;Laerm;58902;51.436;5.980;2022-11-15T00:57:19;40.69;34.34;44.78;;
71020;Laerm;58902;51.436;5.980;2022-11-15T00:57:29;37.00;34.11;41.43;;
71020;Laerm;58902;51.436;5.980;2022-11-15T00:57:40;34.31;30.86;36.12;;
71020;Laerm;58902;51.436;5.980;2022-11-15T00:57:50;33.68;32.54;34.68;;
71020;Laerm;58902;51.436;5.980;2022-11-15T00:58:00;33.00;29.17;34.04;;
71020;Laerm;58902;51.436;5.980;2022-11-15T00:58:11;30.89;29.70;33.83;;
71020;Laerm;58902;51.436;5.980;2022-11-15T00:58:21;31.15;30.03;32.19;;
71020;Laerm;58902;51.436;5.980;2022-11-15T00:58:31;30.69;28.92;32.33;;
71020;Laerm;58902;51.436;5.980;2022-11-15T00:58:42;29.69;28.43;31.25;;
71020;Laerm;58902;51.436;5.980;2022-11-15T00:58:52;29.32;28.26;30.51;;
71020;Laerm;58902;51.436;5.980;2022-11-15T00:59:03;29.33;28.29;30.37;;
71020;Laerm;58902;51.436;5.980;2022-11-15T00:59:13;29.32;27.66;31.67;;
71020;Laerm;58902;51.436;5.980;2022-11-15T00:59:23;29.31;27.99;31.61;;
71020;Laerm;58902;51.436;5.980;2022-11-15T00:59:34;29.34;28.38;30.80;;
71020;Laerm;58902;51.436;5.980;2022-11-15T00:59:44;29.40;28.30;31.20;;